sensor_id;sensor_type;location;lat;lon;timestamp;pressure;altitude;pressure_sealevel;temperature;humidity
50672;BME280;46021;55.882;37.654;2022-11-15T00:01:29;100184.81;;;-1.35;51.13
50672;BME280;46021;55.882;37.654;2022-11-15T00:04:14;100182.00;;;-1.46;50.83
50672;BME280;46021;55.882;37.654;2022-11-15T00:07:00;100176.88;;;-1.46;50.97
50672;BME280;46021;55.882;37.654;2022-11-15T00:09:47;100175.44;;;-1.36;50.96
50672;BME280;46021;55.882;37.654;2022-11-15T00:12:33;100164.72;;;-1.56;51.18
50672;BME280;46021;55.882;37.654;2022-11-15T00:15:18;100179.28;;;-1.52;51.14
50672;BME280;46021;55.882;37.654;2022-11-15T00:18:05;100168.31;;;-1.48;50.64
50672;BME280;46021;55.882;37.654;2022-11-15T00:20:51;100165.88;;;-1.43;50.86
50672;BME280;46021;55.882;37.654;2022-11-15T00:23:37;100159.84;;;-1.47;51.18
50672;BME280;46021;55.882;37.654;2022-11-15T00:26:24;100166.38;;;-1.58;51.23
50672;BME280;46021;55.882;37.654;2022-11-15T00:29:10;100160.06;;;-1.71;51.17
50672;BME280;46021;55.882;37.654;2022-11-15T00:31:56;100160.94;;;-1.70;50.93
50672;BME280;46021;55.882;37.654;2022-11-15T00:34:41;100153.97;;;-1.78;51.49
50672;BME280;46021;55.882;37.654;2022-11-15T00:37:29;100148.16;;;-1.70;51.01
50672;BME280;46021;55.882;37.654;2022-11-15T00:40:15;100154.16;;;-1.70;51.29
50672;BME280;46021;55.882;37.654;2022-11-15T00:43:02;100152.25;;;-1.77;51.13
50672;BME280;46021;55.882;37.654;2022-11-15T00:45:47;100143.03;;;-1.72;51.11
50672;BME280;46021;55.882;37.654;2022-11-15T00:48:33;100141.38;;;-1.70;50.74
50672;BME280;46021;55.882;37.654;2022-11-15T00:51:19;100133.72;;;-1.70;51.26
50672;BME280;46021;55.882;37.654;2022-11-15T00:54:04;100130.91;;;-1.79;50.85
50672;BME280;46021;55.882;37.654;2022-11-15T00:56:50;100135.28;;;-1.75;51.23
50672;BME280;46021;55.882;37.654;2022-11-15T00:59:37;100137.81;;;-1.75;51.31
50672;BME280;46021;55.882;37.654;2022-11-15T01:02:23;100135.47;;;-1.67;51.18
50672;BME280;46021;55.882;37.654;2022-11-15T01:05:09;100127.97;;;-1.60;51.67
50672;BME280;46021;55.882;37.654;2022-11-15T01:07:55;100128.13;;;-1.53;51.61
50672;BME280;46021;55.882;37.654;2022-11-15T01:10:41;100130.31;;;-1.69;51.20
50672;BME280;46021;55.882;37.654;2022-11-15T01:13:30;100124.97;;;-1.78;51.16
50672;BME280;46021;55.882;37.654;2022-11-15T01:16:18;100133.47;;;-1.79;50.60
50672;BME280;46021;55.882;37.654;2022-11-15T01:19:04;100119.75;;;-1.83;51.07
50672;BME280;46021;55.882;37.654;2022-11-15T01:21:49;100117.16;;;-1.84;50.92
50672;BME280;46021;55.882;37.654;2022-11-15T01:24:36;100108.88;;;-1.74;51.24
50672;BME280;46021;55.882;37.654;2022-11-15T01:27:21;100096.94;;;-1.75;51.49
50672;BME280;46021;55.882;37.654;2022-11-15T01:30:08;100108.19;;;-1.67;51.08
50672;BME280;46021;55.882;37.654;2022-11-15T01:32:55;100099.69;;;-1.67;50.62
50672;BME280;46021;55.882;37.654;2022-11-15T01:35:41;100099.59;;;-1.70;51.33
50672;BME280;46021;55.882;37.654;2022-11-15T01:38:26;100104.94;;;-1.61;50.86
50672;BME280;46021;55.882;37.654;2022-11-15T01:41:15;100103.94;;;-1.68;51.12
50672;BME280;46021;55.882;37.654;2022-11-15T01:44:38;100100.44;;;-1.71;51.35
50672;BME280;46021;55.882;37.654;2022-11-15T01:47:27;100089.34;;;-1.72;51.66
50672;BME280;46021;55.882;37.654;2022-11-15T01:50:18;100097.75;;;-1.78;51.61
50672;BME280;46021;55.882;37.654;2022-11-15T01:53:06;100084.75;;;-1.85;51.74
50672;BME280;46021;55.882;37.654;2022-11-15T01:55:52;100101.06;;;-1.80;51.72
50672;BME280;46021;55.882;37.654;2022-11-15T01:58:41;100091.75;;;-1.78;51.49
50672;BME280;46021;55.882;37.654;2022-11-15T02:01:28;100101.16;;;-1.77;51.79
50672;BME280;46021;55.882;37.654;2022-11-15T02:04:17;100103.75;;;-1.75;51.74
50672;BME280;46021;55.882;37.654;2022-11-15T02:07:06;100100.31;;;-1.76;51.54
50672;BME280;46021;55.882;37.654;2022-11-15T02:09:54;100093.47;;;-1.77;51.87
50672;BME280;46021;55.882;37.654;2022-11-15T02:12:41;100096.94;;;-1.75;52.20
50672;BME280;46021;55.882;37.654;2022-11-15T02:15:33;100097.50;;;-1.87;52.21
50672;BME280;46021;55.882;37.654;2022-11-15T02:18:26;100099.88;;;-1.94;52.94
50672;BME280;46021;55.882;37.654;2022-11-15T02:21:18;100092.16;;;-1.96;52.92
50672;BME280;46021;55.882;37.654;2022-11-15T02:24:35;100091.78;;;-2.11;53.08
50672;BME280;46021;55.882;37.654;2022-11-15T02:27:42;100089.94;;;-2.16;53.36
50672;BME280;46021;55.882;37.654;2022-11-15T02:30:38;100088.28;;;-2.15;53.33
50672;BME280;46021;55.882;37.654;2022-11-15T02:33:35;100094.19;;;-2.16;53.41
50672;BME280;46021;55.882;37.654;2022-11-15T02:36:33;100094.28;;;-2.13;52.96
50672;BME280;46021;55.882;37.654;2022-11-15T02:39:25;100097.84;;;-2.08;53.42
50672;BME280;46021;55.882;37.654;2022-11-15T02:42:18;100091.97;;;-2.04;53.54
50672;BME280;46021;55.882;37.654;2022-11-15T02:45:25;100077.66;;;-1.97;52.97
50672;BME280;46021;55.882;37.654;2022-11-15T02:48:15;100082.72;;;-1.99;53.00
50672;BME280;46021;55.882;37.654;2022-11-15T02:51:02;100084.38;;;-2.01;52.82
50672;BME280;46021;55.882;37.654;2022-11-15T02:53:48;100079.09;;;-2.07;53.21
50672;BME280;46021;55.882;37.654;2022-11-15T02:56:33;100073.19;;;-2.06;52.76
50672;BME280;46021;55.882;37.654;2022-11-15T02:59:54;100067.38;;;-1.99;52.57
50672;BME280;46021;55.882;37.654;2022-11-15T03:02:58;100071.50;;;-2.05;52.71
50672;BME280;46021;55.882;37.654;2022-11-15T03:05:54;100072.28;;;-2.08;52.79
50672;BME280;46021;55.882;37.654;2022-11-15T03:08:52;100054.47;;;-2.05;52.99
50672;BME280;46021;55.882;37.654;2022-11-15T03:11:46;100057.09;;;-2.02;52.77
50672;BME280;46021;55.882;37.654;2022-11-15T03:14:35;100049.50;;;-2.00;53.19
50672;BME280;46021;55.882;37.654;2022-11-15T03:17:26;100050.38;;;-1.98;53.65
50672;BME280;46021;55.882;37.654;2022-11-15T03:20:15;100049.53;;;-1.97;53.26
50672;BME280;46021;55.882;37.654;2022-11-15T03:23:05;100059.00;;;-1.94;53.25
50672;BME280;46021;55.882;37.654;2022-11-15T03:25:54;100051.34;;;-1.93;53.73
50672;BME280;46021;55.882;37.654;2022-11-15T03:28:44;100058.25;;;-1.90;53.92
50672;BME280;46021;55.882;37.654;2022-11-15T03:31:34;100045.28;;;-1.98;53.80
50672;BME280;46021;55.882;37.654;2022-11-15T03:34:37;100048.59;;;-2.01;54.20
50672;BME280;46021;55.882;37.654;2022-11-15T03:37:27;100045.94;;;-2.05;53.96
50672;BME280;46021;55.882;37.654;2022-11-15T03:40:17;100051.88;;;-2.06;53.91
50672;BME280;46021;55.882;37.654;2022-11-15T03:43:10;100054.97;;;-2.18;54.31
50672;BME280;46021;55.882;37.654;2022-11-15T03:46:01;100050.81;;;-2.14;54.25
50672;BME280;46021;55.882;37.654;2022-11-15T03:48:53;100061.22;;;-2.07;54.35
50672;BME280;46021;55.882;37.654;2022-11-15T03:51:42;100057.09;;;-2.02;54.50
50672;BME280;46021;55.882;37.654;2022-11-15T03:54:28;100051.19;;;-1.99;53.68
50672;BME280;46021;55.882;37.654;2022-11-15T03:57:14;100041.84;;;-1.99;54.05
50672;BME280;46021;55.882;37.654;2022-11-15T04:00:00;100035.88;;;-1.99;54.54
50672;BME280;46021;55.882;37.654;2022-11-15T04:02:46;100034.88;;;-2.06;54.19
50672;BME280;46021;55.882;37.654;2022-11-15T04:05:31;100038.13;;;-2.11;53.75
50672;BME280;46021;55.882;37.654;2022-11-15T04:08:17;100027.88;;;-2.13;54.44
50672;BME280;46021;55.882;37.654;2022-11-15T04:11:03;100033.00;;;-2.13;53.91
50672;BME280;46021;55.882;37.654;2022-11-15T04:13:50;100030.44;;;-2.13;54.08
50672;BME280;46021;55.882;37.654;2022-11-15T04:16:35;100021.16;;;-2.09;54.56
50672;BME280;46021;55.882;37.654;2022-11-15T04:19:21;100028.88;;;-2.06;54.15
50672;BME280;46021;55.882;37.654;2022-11-15T04:22:24;100022.91;;;-2.07;54.01
50672;BME280;46021;55.882;37.654;2022-11-15T04:25:27;100033.13;;;-2.07;54.28
50672;BME280;46021;55.882;37.654;2022-11-15T04:28:13;100034.75;;;-2.10;53.92
50672;BME280;46021;55.882;37.654;2022-11-15T04:31:00;100028.66;;;-2.16;54.14
50672;BME280;46021;55.882;37.654;2022-11-15T04:33:46;100029.78;;;-2.06;54.43
50672;BME280;46021;55.882;37.654;2022-11-15T04:36:32;100028.91;;;-2.05;54.58
50672;BME280;46021;55.882;37.654;2022-11-15T04:39:35;100029.69;;;-2.09;54.49
50672;BME280;46021;55.882;37.654;2022-11-15T04:42:21;100030.31;;;-2.18;53.91
50672;BME280;46021;55.882;37.654;2022-11-15T04:45:07;100018.44;;;-2.16;53.91
50672;BME280;46021;55.882;37.654;2022-11-15T04:47:54;100017.66;;;-2.13;53.89
50672;BME280;46021;55.882;37.654;2022-11-15T04:50:40;99992.69;;;-2.25;54.34
50672;BME280;46021;55.882;37.654;2022-11-15T04:53:26;100007.44;;;-2.13;54.71
50672;BME280;46021;55.882;37.654;2022-11-15T04:56:12;100006.78;;;-2.06;54.33
50672;BME280;46021;55.882;37.654;2022-11-15T04:58:58;100009.47;;;-2.00;54.58
50672;BME280;46021;55.882;37.654;2022-11-15T05:01:44;99992.25;;;-2.07;53.88
50672;BME280;46021;55.882;37.654;2022-11-15T05:04:31;100009.34;;;-2.06;54.03
50672;BME280;46021;55.882;37.654;2022-11-15T05:07:15;100017.06;;;-2.03;54.08
50672;BME280;46021;55.882;37.654;2022-11-15T05:10:01;100005.03;;;-2.07;54.48
50672;BME280;46021;55.882;37.654;2022-11-15T05:12:47;100007.69;;;-2.04;54.03
50672;BME280;46021;55.882;37.654;2022-11-15T05:15:32;100003.34;;;-2.06;54.19
50672;BME280;46021;55.882;37.654;2022-11-15T05:18:18;100001.69;;;-2.04;54.05
50672;BME280;46021;55.882;37.654;2022-11-15T05:21:05;100008.63;;;-2.00;54.26
50672;BME280;46021;55.882;37.654;2022-11-15T05:23:51;99997.59;;;-1.98;54.43
50672;BME280;46021;55.882;37.654;2022-11-15T05:26:37;100000.00;;;-2.04;54.04
50672;BME280;46021;55.882;37.654;2022-11-15T05:29:23;99990.69;;;-2.02;54.01
50672;BME280;46021;55.882;37.654;2022-11-15T05:32:09;99991.56;;;-2.01;54.25
50672;BME280;46021;55.882;37.654;2022-11-15T05:34:57;99997.56;;;-1.99;54.01
50672;BME280;46021;55.882;37.654;2022-11-15T05:37:44;99986.44;;;-2.01;53.96
50672;BME280;46021;55.882;37.654;2022-11-15T05:40:30;99977.78;;;-2.06;53.79
50672;BME280;46021;55.882;37.654;2022-11-15T05:43:17;99988.91;;;-2.06;53.82
50672;BME280;46021;55.882;37.654;2022-11-15T05:46:04;99990.59;;;-2.05;54.26
50672;BME280;46021;55.882;37.654;2022-11-15T05:48:51;99989.78;;;-2.04;54.06
50672;BME280;46021;55.882;37.654;2022-11-15T05:51:39;99980.47;;;-2.02;53.70
50672;BME280;46021;55.882;37.654;2022-11-15T05:54:27;99965.19;;;-1.99;53.83
50672;BME280;46021;55.882;37.654;2022-11-15T05:57:13;99973.06;;;-1.91;54.18
50672;BME280;46021;55.882;37.654;2022-11-15T05:59:59;99979.16;;;-1.84;54.26
50672;BME280;46021;55.882;37.654;2022-11-15T06:02:44;99974.13;;;-1.81;54.11
50672;BME280;46021;55.882;37.654;2022-11-15T06:05:30;99964.59;;;-1.88;53.59
50672;BME280;46021;55.882;37.654;2022-11-15T06:08:16;99966.41;;;-1.84;54.27
50672;BME280;46021;55.882;37.654;2022-11-15T06:11:06;99956.09;;;-1.89;53.33
50672;BME280;46021;55.882;37.654;2022-11-15T06:13:52;99969.03;;;-1.81;53.49
50672;BME280;46021;55.882;37.654;2022-11-15T06:16:39;99975.09;;;-1.78;54.02
50672;BME280;46021;55.882;37.654;2022-11-15T06:19:24;99957.19;;;-1.76;54.07
50672;BME280;46021;55.882;37.654;2022-11-15T06:22:10;99954.72;;;-1.73;53.69
50672;BME280;46021;55.882;37.654;2022-11-15T06:24:55;99952.94;;;-1.77;53.50
50672;BME280;46021;55.882;37.654;2022-11-15T06:27:43;99951.88;;;-1.85;53.42
50672;BME280;46021;55.882;37.654;2022-11-15T06:30:28;99952.81;;;-1.83;53.28
50672;BME280;46021;55.882;37.654;2022-11-15T06:33:14;99955.38;;;-1.83;53.34
50672;BME280;46021;55.882;37.654;2022-11-15T06:36:01;99945.06;;;-1.86;53.88
50672;BME280;46021;55.882;37.654;2022-11-15T06:38:46;99943.44;;;-1.83;53.58
50672;BME280;46021;55.882;37.654;2022-11-15T06:41:34;99941.75;;;-1.82;53.74
50672;BME280;46021;55.882;37.654;2022-11-15T06:44:21;99944.25;;;-1.84;53.70
50672;BME280;46021;55.882;37.654;2022-11-15T06:47:08;99934.03;;;-1.84;53.04
50672;BME280;46021;55.882;37.654;2022-11-15T06:49:54;99937.31;;;-1.89;53.39
50672;BME280;46021;55.882;37.654;2022-11-15T06:52:39;99938.28;;;-1.84;53.66
50672;BME280;46021;55.882;37.654;2022-11-15T06:55:25;99939.31;;;-1.76;53.62
50672;BME280;46021;55.882;37.654;2022-11-15T06:58:10;99937.84;;;-1.66;53.80
50672;BME280;46021;55.882;37.654;2022-11-15T07:01:01;99931.13;;;-1.61;53.32
50672;BME280;46021;55.882;37.654;2022-11-15T07:03:48;99921.75;;;-1.62;53.42
50672;BME280;46021;55.882;37.654;2022-11-15T07:06:33;99911.56;;;-1.59;53.08
50672;BME280;46021;55.882;37.654;2022-11-15T07:09:19;99919.38;;;-1.53;53.31
50672;BME280;46021;55.882;37.654;2022-11-15T07:12:05;99913.53;;;-1.47;53.59
50672;BME280;46021;55.882;37.654;2022-11-15T07:14:51;99901.50;;;-1.51;52.93
50672;BME280;46021;55.882;37.654;2022-11-15T07:17:38;99900.78;;;-1.44;52.63
50672;BME280;46021;55.882;37.654;2022-11-15T07:20:24;99897.31;;;-1.48;53.03
50672;BME280;46021;55.882;37.654;2022-11-15T07:23:09;99899.03;;;-1.47;52.90
50672;BME280;46021;55.882;37.654;2022-11-15T07:25:56;99904.28;;;-1.41;52.96
50672;BME280;46021;55.882;37.654;2022-11-15T07:28:42;99893.16;;;-1.43;52.97
50672;BME280;46021;55.882;37.654;2022-11-15T07:31:28;99897.50;;;-1.39;52.74
50672;BME280;46021;55.882;37.654;2022-11-15T07:34:15;99890.66;;;-1.40;52.89
50672;BME280;46021;55.882;37.654;2022-11-15T07:37:00;99890.66;;;-1.40;52.90
50672;BME280;46021;55.882;37.654;2022-11-15T07:39:46;99882.13;;;-1.40;52.54
50672;BME280;46021;55.882;37.654;2022-11-15T07:42:32;99877.88;;;-1.38;53.17
50672;BME280;46021;55.882;37.654;2022-11-15T07:45:40;99882.25;;;-1.32;52.65
50672;BME280;46021;55.882;37.654;2022-11-15T07:48:26;99885.59;;;-1.37;52.71
50672;BME280;46021;55.882;37.654;2022-11-15T07:51:14;99884.56;;;-1.46;52.78
50672;BME280;46021;55.882;37.654;2022-11-15T07:54:00;99882.69;;;-1.55;52.85
50672;BME280;46021;55.882;37.654;2022-11-15T07:56:46;99881.78;;;-1.59;52.75
50672;BME280;46021;55.882;37.654;2022-11-15T07:59:31;99882.47;;;-1.66;52.98
50672;BME280;46021;55.882;37.654;2022-11-15T08:02:19;99880.09;;;-1.57;53.28
50672;BME280;46021;55.882;37.654;2022-11-15T08:05:05;99875.78;;;-1.61;52.90
50672;BME280;46021;55.882;37.654;2022-11-15T08:07:52;99882.66;;;-1.57;52.79
50672;BME280;46021;55.882;37.654;2022-11-15T08:10:40;99874.72;;;-1.69;52.96
50672;BME280;46021;55.882;37.654;2022-11-15T08:13:25;99879.22;;;-1.59;53.35
50672;BME280;46021;55.882;37.654;2022-11-15T08:16:11;99875.94;;;-1.51;53.30
50672;BME280;46021;55.882;37.654;2022-11-15T08:18:57;99869.09;;;-1.52;53.12
50672;BME280;46021;55.882;37.654;2022-11-15T08:21:42;99860.66;;;-1.48;53.22
50672;BME280;46021;55.882;37.654;2022-11-15T08:24:30;99843.75;;;-1.40;53.26
50672;BME280;46021;55.882;37.654;2022-11-15T08:27:15;99863.69;;;-1.24;53.09
50672;BME280;46021;55.882;37.654;2022-11-15T08:30:01;99856.13;;;-1.18;52.95
50672;BME280;46021;55.882;37.654;2022-11-15T08:32:47;99857.13;;;-1.08;52.88
50672;BME280;46021;55.882;37.654;2022-11-15T08:35:33;99856.38;;;-1.02;53.01
50672;BME280;46021;55.882;37.654;2022-11-15T08:38:19;99848.00;;;-0.95;53.29
50672;BME280;46021;55.882;37.654;2022-11-15T08:41:05;99845.69;;;-0.81;52.46
50672;BME280;46021;55.882;37.654;2022-11-15T08:43:51;99836.97;;;-0.92;52.48
50672;BME280;46021;55.882;37.654;2022-11-15T08:46:37;99839.69;;;-0.82;51.86
50672;BME280;46021;55.882;37.654;2022-11-15T08:49:22;99837.16;;;-0.80;51.76
50672;BME280;46021;55.882;37.654;2022-11-15T08:52:08;99832.81;;;-0.84;52.05
50672;BME280;46021;55.882;37.654;2022-11-15T08:54:54;99831.13;;;-0.84;52.76
50672;BME280;46021;55.882;37.654;2022-11-15T08:57:41;99820.69;;;-0.96;51.88
50672;BME280;46021;55.882;37.654;2022-11-15T09:00:26;99814.81;;;-0.90;52.23
50672;BME280;46021;55.882;37.654;2022-11-15T09:03:12;99812.28;;;-0.89;51.83
50672;BME280;46021;55.882;37.654;2022-11-15T09:05:59;99817.28;;;-0.95;52.31
50672;BME280;46021;55.882;37.654;2022-11-15T09:08:45;99817.97;;;-1.05;52.02
50672;BME280;46021;55.882;37.654;2022-11-15T09:11:32;99816.22;;;-1.08;52.40
50672;BME280;46021;55.882;37.654;2022-11-15T09:14:19;99821.22;;;-1.14;52.18
50672;BME280;46021;55.882;37.654;2022-11-15T09:17:07;99809.28;;;-1.15;52.32
50672;BME280;46021;55.882;37.654;2022-11-15T09:19:53;99801.66;;;-1.13;52.60
50672;BME280;46021;55.882;37.654;2022-11-15T09:22:39;99801.84;;;-1.01;52.81
50672;BME280;46021;55.882;37.654;2022-11-15T09:25:25;99807.94;;;-0.94;52.55
50672;BME280;46021;55.882;37.654;2022-11-15T09:28:11;99801.19;;;-0.89;52.17
50672;BME280;46021;55.882;37.654;2022-11-15T09:30:59;99807.03;;;-0.96;52.44
50672;BME280;46021;55.882;37.654;2022-11-15T09:33:46;99802.59;;;-1.07;51.87
50672;BME280;46021;55.882;37.654;2022-11-15T09:36:31;99792.31;;;-1.10;52.31
50672;BME280;46021;55.882;37.654;2022-11-15T09:39:17;99794.81;;;-1.13;52.14
50672;BME280;46021;55.882;37.654;2022-11-15T09:42:25;99791.53;;;-1.04;52.71
50672;BME280;46021;55.882;37.654;2022-11-15T09:45:18;99777.84;;;-1.09;52.47
50672;BME280;46021;55.882;37.654;2022-11-15T09:51:44;99793.66;;;-0.80;51.64
50672;BME280;46021;55.882;37.654;2022-11-15T09:54:21;99793.63;;;-0.82;51.28
50672;BME280;46021;55.882;37.654;2022-11-15T09:56:50;99791.91;;;-0.83;51.40
50672;BME280;46021;55.882;37.654;2022-11-15T09:59:24;99783.28;;;-0.88;52.16
50672;BME280;46021;55.882;37.654;2022-11-15T10:01:59;99777.31;;;-0.88;51.46
50672;BME280;46021;55.882;37.654;2022-11-15T10:04:31;99784.22;;;-0.84;51.96
50672;BME280;46021;55.882;37.654;2022-11-15T10:07:02;99777.38;;;-0.84;52.36
50672;BME280;46021;55.882;37.654;2022-11-15T10:09:36;99781.69;;;-0.80;52.25
50672;BME280;46021;55.882;37.654;2022-11-15T10:12:06;99768.97;;;-0.76;51.65
50672;BME280;46021;55.882;37.654;2022-11-15T10:14:35;99757.03;;;-0.76;52.50
50672;BME280;46021;55.882;37.654;2022-11-15T10:17:25;99747.66;;;-0.75;51.25
50672;BME280;46021;55.882;37.654;2022-11-15T10:20:05;99731.44;;;-0.76;52.54
50672;BME280;46021;55.882;37.654;2022-11-15T10:22:40;99746.91;;;-0.70;52.16
50672;BME280;46021;55.882;37.654;2022-11-15T10:25:26;99736.72;;;-0.65;51.30
50672;BME280;46021;55.882;37.654;2022-11-15T10:27:56;99733.31;;;-0.63;52.60
50672;BME280;46021;55.882;37.654;2022-11-15T10:30:31;99729.84;;;-0.66;52.41
50672;BME280;46021;55.882;37.654;2022-11-15T10:33:08;99733.25;;;-0.69;52.02
50672;BME280;46021;55.882;37.654;2022-11-15T10:35:37;99734.16;;;-0.65;52.47
50672;BME280;46021;55.882;37.654;2022-11-15T10:38:07;99728.25;;;-0.60;52.81
50672;BME280;46021;55.882;37.654;2022-11-15T10:40:36;99733.44;;;-0.53;51.86
50672;BME280;46021;55.882;37.654;2022-11-15T10:43:12;99729.25;;;-0.50;52.31
50672;BME280;46021;55.882;37.654;2022-11-15T10:45:40;99725.88;;;-0.46;52.58
50672;BME280;46021;55.882;37.654;2022-11-15T10:48:23;99722.44;;;-0.48;51.33
50672;BME280;46021;55.882;37.654;2022-11-15T10:50:53;99719.03;;;-0.47;51.53
50672;BME280;46021;55.882;37.654;2022-11-15T10:53:28;99715.59;;;-0.49;52.70
50672;BME280;46021;55.882;37.654;2022-11-15T10:56:02;99698.44;;;-0.56;52.15
50672;BME280;46021;55.882;37.654;2022-11-15T10:58:36;99713.88;;;-0.50;52.38
50672;BME280;46021;55.882;37.654;2022-11-15T11:01:16;99701.88;;;-0.54;52.99
50672;BME280;46021;55.882;37.654;2022-11-15T11:03:44;99704.47;;;-0.52;52.03
50672;BME280;46021;55.882;37.654;2022-11-15T11:06:13;99696.75;;;-0.54;51.98
50672;BME280;46021;55.882;37.654;2022-11-15T11:08:54;99693.25;;;-0.61;52.18
50672;BME280;46021;55.882;37.654;2022-11-15T11:11:21;99692.31;;;-0.67;51.77
50672;BME280;46021;55.882;37.654;2022-11-15T11:13:49;99676.03;;;-0.72;51.96
50672;BME280;46021;55.882;37.654;2022-11-15T11:16:44;99657.81;;;-0.94;53.17
50672;BME280;46021;55.882;37.654;2022-11-15T11:19:38;99667.31;;;-0.87;53.00
50672;BME280;46021;55.882;37.654;2022-11-15T11:22:13;99676.78;;;-0.80;52.27
50672;BME280;46021;55.882;37.654;2022-11-15T11:24:52;99672.59;;;-0.74;52.99
50672;BME280;46021;55.882;37.654;2022-11-15T11:27:36;99669.94;;;-0.81;53.47
50672;BME280;46021;55.882;37.654;2022-11-15T11:30:13;99670.88;;;-0.75;53.49
50672;BME280;46021;55.882;37.654;2022-11-15T11:33:10;99660.53;;;-0.82;52.93
50672;BME280;46021;55.882;37.654;2022-11-15T11:35:50;99659.72;;;-0.81;53.17
50672;BME280;46021;55.882;37.654;2022-11-15T11:38:39;99665.44;;;-0.97;53.80
50672;BME280;46021;55.882;37.654;2022-11-15T11:41:10;99650.94;;;-0.96;54.30
50672;BME280;46021;55.882;37.654;2022-11-15T11:43:50;99653.53;;;-0.95;53.18
50672;BME280;46021;55.882;37.654;2022-11-15T11:46:35;99654.41;;;-0.93;54.08
50672;BME280;46021;55.882;37.654;2022-11-15T11:49:09;99644.19;;;-0.91;54.21
50672;BME280;46021;55.882;37.654;2022-11-15T11:51:40;99649.28;;;-0.93;53.98
50672;BME280;46021;55.882;37.654;2022-11-15T11:54:12;99652.69;;;-0.95;54.43
50672;BME280;46021;55.882;37.654;2022-11-15T11:56:44;99644.97;;;-0.97;54.36
50672;BME280;46021;55.882;37.654;2022-11-15T11:59:17;99646.72;;;-0.96;54.46
50672;BME280;46021;55.882;37.654;2022-11-15T12:01:46;99644.06;;;-1.01;54.20
50672;BME280;46021;55.882;37.654;2022-11-15T12:04:17;99644.91;;;-1.03;54.20
50672;BME280;46021;55.882;37.654;2022-11-15T12:06:50;99633.78;;;-1.05;55.15
50672;BME280;46021;55.882;37.654;2022-11-15T12:09:23;99644.81;;;-1.09;54.93
50672;BME280;46021;55.882;37.654;2022-11-15T12:12:02;99632.81;;;-1.13;55.38
50672;BME280;46021;55.882;37.654;2022-11-15T12:14:33;99642.28;;;-1.06;55.97
50672;BME280;46021;55.882;37.654;2022-11-15T12:17:03;99642.16;;;-1.15;55.43
50672;BME280;46021;55.882;37.654;2022-11-15T12:19:30;99639.38;;;-1.31;56.26
50672;BME280;46021;55.882;37.654;2022-11-15T12:22:02;99627.28;;;-1.41;56.33
50672;BME280;46021;55.882;37.654;2022-11-15T12:24:34;99622.91;;;-1.48;56.73
50672;BME280;46021;55.882;37.654;2022-11-15T12:27:13;99610.84;;;-1.59;58.20
50672;BME280;46021;55.882;37.654;2022-11-15T12:29:46;99625.38;;;-1.54;58.23
50672;BME280;46021;55.882;37.654;2022-11-15T12:32:23;99624.50;;;-1.57;57.34
50672;BME280;46021;55.882;37.654;2022-11-15T12:34:52;99623.50;;;-1.65;58.63
50672;BME280;46021;55.882;37.654;2022-11-15T12:37:34;99612.91;;;-1.86;60.17
50672;BME280;46021;55.882;37.654;2022-11-15T12:40:21;99617.06;;;-1.93;59.85
50672;BME280;46021;55.882;37.654;2022-11-15T12:46:04;99618.59;;;-2.03;59.69
50672;BME280;46021;55.882;37.654;2022-11-15T12:48:59;99604.16;;;-2.02;62.11
50672;BME280;46021;55.882;37.654;2022-11-15T12:54:50;99604.03;;;-2.07;60.36
50672;BME280;46021;55.882;37.654;2022-11-15T12:57:34;99596.38;;;-2.07;63.69
50672;BME280;46021;55.882;37.654;2022-11-15T13:03:18;99604.13;;;-2.04;62.58
50672;BME280;46021;55.882;37.654;2022-11-15T13:06:00;99591.97;;;-2.16;64.21
50672;BME280;46021;55.882;37.654;2022-11-15T13:08:49;99586.78;;;-2.20;64.96
50672;BME280;46021;55.882;37.654;2022-11-15T13:11:41;99587.63;;;-2.20;65.82
50672;BME280;46021;55.882;37.654;2022-11-15T13:17:31;99569.69;;;-2.24;67.46
50672;BME280;46021;55.882;37.654;2022-11-15T13:20:02;99572.28;;;-2.21;65.55
50672;BME280;46021;55.882;37.654;2022-11-15T13:22:41;99573.13;;;-2.22;65.26
50672;BME280;46021;55.882;37.654;2022-11-15T13:28:22;99564.41;;;-2.33;65.82
50672;BME280;46021;55.882;37.654;2022-11-15T13:30:53;99562.81;;;-2.28;66.94
50672;BME280;46021;55.882;37.654;2022-11-15T13:33:24;99554.28;;;-2.30;66.50
50672;BME280;46021;55.882;37.654;2022-11-15T13:35:55;99560.28;;;-2.28;65.69
50672;BME280;46021;55.882;37.654;2022-11-15T13:38:27;99547.34;;;-2.38;68.99
50672;BME280;46021;55.882;37.654;2022-11-15T13:40:56;99555.88;;;-2.36;67.29
50672;BME280;46021;55.882;37.654;2022-11-15T13:43:29;99540.56;;;-2.36;67.26
50672;BME280;46021;55.882;37.654;2022-11-15T13:46:06;99538.78;;;-2.40;68.54
50672;BME280;46021;55.882;37.654;2022-11-15T13:48:35;99542.22;;;-2.38;69.11
50672;BME280;46021;55.882;37.654;2022-11-15T13:51:03;99546.31;;;-2.46;70.07
50672;BME280;46021;55.882;37.654;2022-11-15T13:53:32;99542.13;;;-2.44;68.09
50672;BME280;46021;55.882;37.654;2022-11-15T13:56:01;99537.06;;;-2.41;68.78
50672;BME280;46021;55.882;37.654;2022-11-15T13:58:29;99532.81;;;-2.40;69.19
50672;BME280;46021;55.882;37.654;2022-11-15T14:01:00;99543.09;;;-2.37;69.23
50672;BME280;46021;55.882;37.654;2022-11-15T14:03:30;99533.72;;;-2.37;69.38
50672;BME280;46021;55.882;37.654;2022-11-15T14:06:07;99532.06;;;-2.35;69.88
50672;BME280;46021;55.882;37.654;2022-11-15T14:08:38;99537.13;;;-2.38;70.49
50672;BME280;46021;55.882;37.654;2022-11-15T14:11:08;99528.31;;;-2.55;72.35
50672;BME280;46021;55.882;37.654;2022-11-15T14:13:36;99529.16;;;-2.55;70.02
50672;BME280;46021;55.882;37.654;2022-11-15T14:16:14;99540.28;;;-2.51;71.55
50672;BME280;46021;55.882;37.654;2022-11-15T14:18:45;99524.81;;;-2.60;72.42
50672;BME280;46021;55.882;37.654;2022-11-15T14:21:14;99522.31;;;-2.56;70.97
50672;BME280;46021;55.882;37.654;2022-11-15T14:23:41;99523.94;;;-2.59;72.50
50672;BME280;46021;55.882;37.654;2022-11-15T14:26:26;99520.69;;;-2.52;71.46
50672;BME280;46021;55.882;37.654;2022-11-15T14:28:53;99525.00;;;-2.48;70.60
50672;BME280;46021;55.882;37.654;2022-11-15T14:31:21;99519.88;;;-2.51;73.04